Time;durP1;ratioP1;P1;durP2;ratioP2;P2;SDS_P1;SDS_P2;PMS_P1;PMS_P2;Temp;Humidity;BMP_temperature;BMP_pressure;BME280_temperature;BME280_humidity;BME280_pressure;Samples;Min_cycle;Max_cycle;Signal;HPM_P1;HPM_P2
2021/07/28 00:00:06;;;;;;;7.55;4.05;;;19.40;99.40;;;;;;5054277;28;20017;-73
2021/07/28 00:02:32;;;;;;;10.80;4.37;;;19.40;99.40;;;;;;5053690;28;20051;-74
2021/07/28 00:04:58;;;;;;;7.72;4.57;;;19.40;99.20;;;;;;5053503;28;20029;-73
2021/07/28 00:07:23;;;;;;;10.23;4.10;;;19.40;99.50;;;;;;5052748;28;20033;-73
2021/07/28 00:09:49;;;;;;;8.25;3.83;;;19.40;99.40;;;;;;5053412;28;20036;-73
2021/07/28 00:12:15;;;;;;;8.98;4.18;;;19.40;99.40;;;;;;5053127;28;20025;-74
2021/07/28 00:14:40;;;;;;;7.10;4.32;;;19.40;99.30;;;;;;5053605;28;20304;-72
2021/07/28 00:17:09;;;;;;;12.60;4.28;;;19.40;99.30;;;;;;5053309;28;20025;-72
2021/07/28 00:19:52;;;;;;;10.02;4.03;;;19.40;99.40;;;;;;5052920;28;20033;-73
2021/07/28 00:25:04;;;;;;;4.50;3.75;;;19.30;99.30;;;;;;5052868;28;20657;-73
2021/07/28 00:27:30;;;;;;;5.47;4.47;;;19.30;99.20;;;;;;5052966;28;20504;-73
2021/07/28 00:29:59;;;;;;;8.32;4.53;;;19.30;99.30;;;;;;5053425;28;20020;-72
2021/07/28 00:32:24;;;;;;;9.20;4.50;;;19.30;99.20;;;;;;5052861;28;20051;-72
2021/07/28 00:34:53;;;;;;;12.25;4.55;;;19.30;99.20;;;;;;5052766;28;20029;-73
2021/07/28 00:37:18;;;;;;;7.28;4.47;;;19.30;99.50;;;;;;5052701;28;20043;-73
2021/07/28 00:39:47;;;;;;;7.28;4.03;;;19.20;99.50;;;;;;5051618;28;20037;-74
2021/07/28 00:42:12;;;;;;;8.55;4.15;;;19.20;99.40;;;;;;5052529;28;20048;-74
2021/07/28 00:44:38;;;;;;;6.20;3.85;;;19.20;99.40;;;;;;5053006;28;20234;-73
2021/07/28 00:47:06;;;;;;;7.93;4.05;;;19.20;99.50;;;;;;5052587;28;20032;-73
2021/07/28 00:49:32;;;;;;;10.77;4.60;;;19.20;99.60;;;;;;5052558;28;20032;-73
2021/07/28 00:52:02;;;;;;;11.25;4.30;;;19.10;99.50;;;;;;5051536;28;20033;-73
2021/07/28 00:54:31;;;;;;;12.40;4.20;;;19.10;99.70;;;;;;5052714;28;20137;-73
2021/07/28 00:56:57;;;;;;;7.28;4.15;;;19.10;99.60;;;;;;5051610;28;20458;-73
2021/07/28 00:59:24;;;;;;;9.30;4.10;;;19.20;99.60;;;;;;5051780;28;20033;-74
2021/07/28 01:01:49;;;;;;;11.70;4.13;;;19.20;99.60;;;;;;5052280;28;20089;-72
2021/07/28 01:04:15;;;;;;;8.00;4.38;;;19.20;99.40;;;;;;5052325;28;20040;-74
2021/07/28 01:06:50;;;;;;;7.32;4.38;;;19.20;99.40;;;;;;5052068;28;20041;-72
2021/07/28 01:09:15;;;;;;;9.85;4.47;;;19.20;99.40;;;;;;5052039;28;20029;-73
2021/07/28 01:11:43;;;;;;;7.15;4.45;;;19.10;99.40;;;;;;5052820;28;20036;-73
2021/07/28 01:14:09;;;;;;;7.75;4.20;;;19.10;99.20;;;;;;5052124;28;20048;-72
2021/07/28 01:16:38;;;;;;;8.63;3.83;;;19.10;99.30;;;;;;5052155;28;20029;-72
2021/07/28 01:19:15;;;;;;;13.30;4.30;;;19.10;99.40;;;;;;5052529;28;20029;-74
2021/07/28 01:21:43;;;;;;;13.38;4.88;;;19.10;99.50;;;;;;5051838;28;20045;-74
2021/07/28 01:24:10;;;;;;;;;;;19.00;99.60;;;;;;5052211;28;20025;-75
2021/07/28 01:26:37;;;;;;;20.10;4.20;;;19.00;99.60;;;;;;5052398;28;19912;-73
2021/07/28 01:29:06;;;;;;;12.23;4.47;;;19.00;99.50;;;;;;5051775;28;20040;-72
2021/07/28 01:31:44;;;;;;;12.07;4.40;;;19.00;99.50;;;;;;5051897;28;20028;-74
2021/07/28 01:34:11;;;;;;;8.65;4.13;;;19.00;99.50;;;;;;5051811;28;20466;-75
2021/07/28 01:36:42;;;;;;;6.53;4.30;;;19.00;99.30;;;;;;5037062;28;20110;-74
2021/07/28 01:39:10;;;;;;;10.57;4.30;;;19.00;99.50;;;;;;5032169;28;20037;-73
2021/07/28 01:41:36;;;;;;;9.18;3.40;;;18.90;99.30;;;;;;5032243;28;20436;-73
2021/07/28 01:44:01;;;;;;;5.88;4.03;;;18.90;99.30;;;;;;5031546;28;20033;-73
2021/07/28 01:46:27;;;;;;;22.00;4.97;;;18.90;99.30;;;;;;5031551;28;20042;-73
2021/07/28 01:48:52;;;;;;;9.27;3.80;;;18.90;99.20;;;;;;5031594;28;20037;-74
2021/07/28 01:51:18;;;;;;;11.05;4.65;;;18.90;99.20;;;;;;5031302;28;20029;-73
2021/07/28 01:53:44;;;;;;;13.23;4.75;;;19.00;99.30;;;;;;5032163;28;20351;-74
2021/07/28 01:56:10;;;;;;;9.63;4.00;;;18.90;99.40;;;;;;5031595;28;20103;-74
2021/07/28 01:58:39;;;;;;;6.80;4.03;;;18.80;99.70;;;;;;5031549;28;20236;-72
2021/07/28 02:01:05;;;;;;;6.82;3.95;;;18.90;99.90;;;;;;5031443;28;20048;-74
2021/07/28 02:03:30;;;;;;;10.35;4.20;;;18.80;99.70;;;;;;5031216;28;20463;-73
2021/07/28 02:05:56;;;;;;;10.50;4.40;;;18.90;99.70;;;;;;5031731;28;20116;-74
2021/07/28 02:08:22;;;;;;;9.32;4.28;;;18.80;99.70;;;;;;5031498;28;20099;-74
2021/07/28 02:10:51;;;;;;;9.05;3.67;;;18.80;99.80;;;;;;5031303;28;20047;-74
2021/07/28 02:13:23;;;;;;;10.27;4.25;;;18.80;99.70;;;;;;5031233;28;20033;-73
2021/07/28 02:15:48;;;;;;;8.20;3.95;;;18.70;99.60;;;;;;5031432;28;20045;-73
2021/07/28 02:18:14;;;;;;;14.95;4.32;;;18.70;99.50;;;;;;5031488;28;20033;-75
2021/07/28 02:20:40;;;;;;;9.18;4.00;;;18.70;99.60;;;;;;5031310;28;20451;-73
2021/07/28 02:23:06;;;;;;;12.75;4.13;;;18.70;99.50;;;;;;5030994;28;20422;-73
2021/07/28 02:25:32;;;;;;;10.20;4.30;;;18.70;99.90;;;;;;5030956;28;20033;-72
2021/07/28 02:27:57;;;;;;;9.75;4.05;;;18.70;99.60;;;;;;5031169;28;20099;-73
2021/07/28 02:30:23;;;;;;;8.32;3.97;;;18.70;99.50;;;;;;5030544;28;20034;-73
2021/07/28 02:32:49;;;;;;;7.85;4.20;;;18.60;99.50;;;;;;5031242;28;20033;-73
2021/07/28 02:35:16;;;;;;;8.10;4.55;;;18.70;99.70;;;;;;5030897;28;20132;-74
2021/07/28 02:37:43;;;;;;;6.57;3.60;;;18.70;99.70;;;;;;5030894;28;20071;-74
2021/07/28 02:40:14;;;;;;;6.05;4.00;;;18.60;99.80;;;;;;5030810;28;20044;-74
2021/07/28 02:42:40;;;;;;;5.65;3.40;;;18.60;99.80;;;;;;5030812;28;20037;-74
2021/07/28 02:45:06;;;;;;;19.33;3.90;;;18.60;99.60;;;;;;5031203;28;20021;-75
2021/07/28 02:47:32;;;;;;;13.07;4.03;;;18.60;99.50;;;;;;5031231;28;20087;-73
2021/07/28 02:50:03;;;;;;;8.52;4.15;;;18.60;99.50;;;;;;5030904;28;20049;-74
2021/07/28 02:52:29;;;;;;;15.38;4.28;;;18.50;99.60;;;;;;5030908;28;20118;-73
2021/07/28 02:54:54;;;;;;;8.88;3.80;;;18.40;99.70;;;;;;5030797;28;20364;-73
2021/07/28 02:57:32;;;;;;;8.00;3.42;;;18.40;99.80;;;;;;5030720;28;20022;-75
2021/07/28 02:59:57;;;;;;;6.07;3.92;;;18.30;99.90;;;;;;5031178;28;20270;-75
2021/07/28 03:02:23;;;;;;;8.23;3.97;;;18.30;99.90;;;;;;5030408;28;20463;-73
2021/07/28 03:04:49;;;;;;;14.68;4.18;;;18.30;99.90;;;;;;5029796;28;20499;-74
2021/07/28 03:07:14;;;;;;;7.43;4.25;;;18.30;99.90;;;;;;5030390;28;20483;-74
2021/07/28 03:09:40;;;;;;;9.75;3.85;;;18.20;99.90;;;;;;5029720;28;20029;-73
2021/07/28 03:12:06;;;;;;;10.85;4.43;;;18.20;99.80;;;;;;5029362;28;20470;-76
2021/07/28 03:14:32;;;;;;;8.40;3.78;;;18.20;99.80;;;;;;5030987;28;20032;-74
2021/07/28 03:16:57;;;;;;;10.35;4.70;;;18.20;99.90;;;;;;5030501;28;20022;-74
2021/07/28 03:19:23;;;;;;;11.52;4.22;;;18.20;99.90;;;;;;5030685;28;20415;-75
2021/07/28 03:21:52;;;;;;;6.63;3.67;;;18.20;99.90;;;;;;5030275;28;20083;-73
2021/07/28 03:24:18;;;;;;;16.55;4.95;;;18.10;99.90;;;;;;5029291;28;20060;-75
2021/07/28 03:26:45;;;;;;;6.97;4.15;;;18.10;99.90;;;;;;5029850;28;20037;-74
2021/07/28 03:29:11;;;;;;;7.70;3.78;;;18.00;99.90;;;;;;5029540;28;20072;-74
2021/07/28 03:31:37;;;;;;;8.93;4.03;;;18.10;99.90;;;;;;5029380;28;20033;-74
2021/07/28 03:34:02;;;;;;;7.70;4.07;;;18.00;99.90;;;;;;5030489;28;20542;-73
2021/07/28 03:36:28;;;;;;;5.38;3.97;;;18.00;99.90;;;;;;5030464;28;20569;-73
2021/07/28 03:38:56;;;;;;;9.18;4.00;;;18.00;99.90;;;;;;5030729;28;20038;-73
2021/07/28 03:41:22;;;;;;;12.40;4.30;;;18.00;99.90;;;;;;5030381;28;20487;-74
2021/07/28 03:43:50;;;;;;;6.75;4.45;;;18.00;99.90;;;;;;5033807;28;20199;-73
2021/07/28 03:46:16;;;;;;;9.27;3.95;;;18.00;99.90;;;;;;5033838;28;20443;-73
2021/07/28 03:48:42;;;;;;;12.55;4.38;;;18.00;99.90;;;;;;5032718;28;20069;-74
2021/07/28 03:51:07;;;;;;;10.95;4.05;;;18.10;99.90;;;;;;5034187;28;20380;-75
2021/07/28 03:53:35;;;;;;;7.00;4.05;;;18.00;99.90;;;;;;5034306;28;20117;-73
2021/07/28 03:56:00;;;;;;;8.48;4.82;;;18.00;99.90;;;;;;5033862;28;20105;-74
2021/07/28 03:58:26;;;;;;;7.97;3.42;;;18.00;99.90;;;;;;5032834;28;20105;-73
2021/07/28 04:00:51;;;;;;;8.15;4.10;;;18.00;99.90;;;;;;5033657;28;20033;-73
2021/07/28 04:03:17;;;;;;;6.53;3.95;;;18.10;99.90;;;;;;5033517;28;20036;-73
2021/07/28 04:05:42;;;;;;;16.60;4.28;;;18.10;99.90;;;;;;5034089;28;20052;-75
2021/07/28 04:08:08;;;;;;;10.18;4.35;;;18.00;99.90;;;;;;5033384;28;20121;-74
2021/07/28 04:10:35;;;;;;;8.18;4.07;;;18.00;99.90;;;;;;5033354;28;20041;-74
2021/07/28 04:13:00;;;;;;;9.43;4.68;;;18.00;99.90;;;;;;5032393;28;20036;-74
2021/07/28 04:15:26;;;;;;;13.52;4.45;;;18.00;99.90;;;;;;5033270;28;20025;-74
2021/07/28 04:17:51;;;;;;;15.48;4.80;;;18.00;99.90;;;;;;5033758;28;20105;-74
2021/07/28 04:20:17;;;;;;;6.00;3.80;;;18.00;99.90;;;;;;5032395;28;20029;-73
2021/07/28 04:22:45;;;;;;;7.03;4.10;;;18.00;99.90;;;;;;5033030;28;20042;-74
2021/07/28 04:25:11;;;;;;;9.63;4.70;;;18.10;99.90;;;;;;5033134;28;20509;-74
2021/07/28 04:27:37;;;;;;;10.63;4.45;;;18.10;99.90;;;;;;5032095;28;20542;-73
2021/07/28 04:30:05;;;;;;;11.25;4.88;;;18.10;99.90;;;;;;5033658;28;20017;-74
2021/07/28 04:32:30;;;;;;;7.47;4.05;;;18.00;99.90;;;;;;5033189;28;20044;-75
2021/07/28 04:34:56;;;;;;;15.32;6.72;;;18.20;99.90;;;;;;5031919;28;20026;-73
2021/07/28 04:37:22;;;;;;;10.77;5.47;;;18.20;99.90;;;;;;5031996;28;20033;-74
2021/07/28 04:39:47;;;;;;;9.27;4.65;;;18.20;99.90;;;;;;5032863;28;20037;-73
2021/07/28 04:42:13;;;;;;;7.22;4.28;;;18.20;99.90;;;;;;5032734;28;20359;-73
2021/07/28 04:44:39;;;;;;;9.23;4.20;;;18.20;99.90;;;;;;5033160;28;20033;-75
2021/07/28 04:47:05;;;;;;;8.15;4.13;;;18.20;99.90;;;;;;5032848;28;20030;-74
2021/07/28 04:49:30;;;;;;;9.75;4.10;;;18.20;99.90;;;;;;5032905;28;20057;-73
2021/07/28 04:51:56;;;;;;;11.10;4.72;;;18.30;99.90;;;;;;5032691;28;20359;-73
2021/07/28 04:54:21;;;;;;;6.85;4.22;;;18.20;99.90;;;;;;5032255;28;20068;-75
2021/07/28 04:56:47;;;;;;;11.13;4.07;;;18.20;99.90;;;;;;5033037;28;20510;-73
2021/07/28 04:59:12;;;;;;;7.97;4.25;;;18.30;99.90;;;;;;5032575;28;20041;-75
2021/07/28 05:01:38;;;;;;;12.23;5.20;;;18.30;99.80;;;;;;5031436;28;20025;-75
2021/07/28 05:04:04;;;;;;;8.80;4.60;;;18.30;99.90;;;;;;5032329;28;20140;-72
2021/07/28 05:06:30;;;;;;;9.27;4.28;;;18.30;99.90;;;;;;5032287;28;20033;-75
2021/07/28 05:08:56;;;;;;;10.38;4.25;;;18.30;99.90;;;;;;5032673;28;20059;-73
2021/07/28 05:11:22;;;;;;;7.82;4.63;;;18.30;99.90;;;;;;5032143;28;20033;-74
2021/07/28 05:13:47;;;;;;;8.45;4.68;;;18.30;99.90;;;;;;5032313;28;20041;-73
2021/07/28 05:16:13;;;;;;;13.02;5.20;;;18.40;99.90;;;;;;5031127;28;20124;-73
2021/07/28 05:18:38;;;;;;;8.52;4.68;;;18.40;99.90;;;;;;5031949;28;20033;-75
2021/07/28 05:21:04;;;;;;;11.93;5.30;;;18.40;99.90;;;;;;5032134;28;20493;-75
2021/07/28 05:23:30;;;;;;;9.48;4.57;;;18.50;99.90;;;;;;5030762;28;20459;-74
2021/07/28 05:25:55;;;;;;;6.60;4.13;;;18.50;99.80;;;;;;5031791;28;20033;-75
2021/07/28 05:28:21;;;;;;;8.95;4.57;;;18.50;99.70;;;;;;5031882;28;20530;-74
2021/07/28 05:30:46;;;;;;;7.38;4.68;;;18.50;99.60;;;;;;5031991;28;20070;-74
2021/07/28 05:33:12;;;;;;;11.00;5.53;;;18.60;99.80;;;;;;5031774;28;20033;-73
2021/07/28 05:35:38;;;;;;;9.93;4.78;;;18.60;99.90;;;;;;5030907;28;20025;-74
2021/07/28 05:38:04;;;;;;;8.23;4.22;;;18.60;99.60;;;;;;5031820;28;20459;-72
2021/07/28 05:40:30;;;;;;;8.93;5.10;;;18.60;99.60;;;;;;5031410;28;20044;-73
2021/07/28 05:42:56;;;;;;;10.65;4.18;;;18.70;99.50;;;;;;5031509;28;20422;-73
2021/07/28 05:45:22;;;;;;;9.15;4.85;;;18.70;99.50;;;;;;5031529;28;20037;-72
2021/07/28 05:47:48;;;;;;;11.35;4.85;;;18.80;99.50;;;;;;5030856;28;20486;-72
2021/07/28 05:50:14;;;;;;;8.38;4.25;;;18.70;99.40;;;;;;5030162;28;20030;-73
2021/07/28 05:52:40;;;;;;;9.75;4.40;;;18.80;99.40;;;;;;5030314;28;20048;-73
2021/07/28 05:55:06;;;;;;;7.18;4.53;;;18.80;99.30;;;;;;5031460;28;20029;-72
2021/07/28 05:57:32;;;;;;;10.60;4.30;;;18.80;99.10;;;;;;5031407;28;20022;-74
2021/07/28 05:59:57;;;;;;;8.75;5.13;;;18.80;99.10;;;;;;5031792;28;20098;-72
2021/07/28 06:02:23;;;;;;;8.23;4.20;;;18.80;99.10;;;;;;5031560;28;20036;-73
2021/07/28 06:04:49;;;;;;;9.18;4.00;;;18.90;99.10;;;;;;5030429;28;20486;-73
2021/07/28 06:07:14;;;;;;;10.05;4.82;;;18.90;99.20;;;;;;5031155;28;20042;-72
2021/07/28 06:09:40;;;;;;;8.68;4.55;;;19.00;99.30;;;;;;5031272;28;20417;-74
2021/07/28 06:12:07;;;;;;;8.88;4.80;;;19.10;99.10;;;;;;5030487;28;20041;-73
2021/07/28 06:14:33;;;;;;;10.38;5.05;;;19.20;99.00;;;;;;5031311;28;20021;-73
2021/07/28 06:16:58;;;;;;;11.20;4.63;;;19.30;98.90;;;;;;5030133;28;20099;-73
2021/07/28 06:19:24;;;;;;;8.77;4.30;;;19.30;98.70;;;;;;5030936;28;20214;-72
2021/07/28 06:21:49;;;;;;;10.82;4.65;;;19.40;98.60;;;;;;5030898;28;20052;-75
2021/07/28 06:24:15;;;;;;;6.93;4.45;;;19.40;98.40;;;;;;5030866;28;20029;-74
2021/07/28 06:26:42;;;;;;;7.88;4.80;;;19.50;98.40;;;;;;5031757;28;20073;-73
2021/07/28 06:29:07;;;;;;;5.93;4.15;;;19.50;98.30;;;;;;5031081;28;20216;-72
2021/07/28 06:31:33;;;;;;;8.38;4.38;;;19.50;98.50;;;;;;5030874;28;20080;-72
2021/07/28 06:33:58;;;;;;;5.25;3.90;;;19.60;98.50;;;;;;5031107;28;20025;-73
2021/07/28 06:36:24;;;;;;;8.07;5.00;;;19.60;98.30;;;;;;5030789;28;20029;-73
2021/07/28 06:38:49;;;;;;;9.80;3.95;;;19.70;98.60;;;;;;5031552;28;20025;-74
2021/07/28 06:41:15;;;;;;;8.27;4.30;;;19.70;98.20;;;;;;5030590;28;20025;-74
2021/07/28 06:43:41;;;;;;;9.38;4.65;;;19.70;98.10;;;;;;5030756;28;20062;-73
2021/07/28 06:46:06;;;;;;;8.30;4.53;;;19.70;98.00;;;;;;5030919;28;20121;-73
2021/07/28 06:48:32;;;;;;;9.95;4.57;;;19.80;98.00;;;;;;5030774;28;20041;-73
2021/07/28 06:50:58;;;;;;;8.18;4.70;;;19.80;97.80;;;;;;5029883;28;20072;-73
2021/07/28 06:53:24;;;;;;;7.50;4.35;;;19.80;97.90;;;;;;5030371;28;20036;-74
2021/07/28 06:55:53;;;;;;;7.53;4.32;;;19.90;98.10;;;;;;5030847;28;20496;-72
2021/07/28 06:58:19;;;;;;;10.20;4.40;;;20.00;98.10;;;;;;5030950;28;20067;-73
2021/07/28 07:00:45;;;;;;;9.63;4.28;;;20.10;98.10;;;;;;5030718;28;20407;-73
2021/07/28 07:03:10;;;;;;;9.63;4.72;;;20.20;97.70;;;;;;5029459;28;20042;-73
2021/07/28 07:05:36;;;;;;;7.30;4.10;;;20.30;97.10;;;;;;5031048;28;20395;-72
2021/07/28 07:08:02;;;;;;;9.27;4.85;;;20.30;97.00;;;;;;5029459;28;20029;-73
2021/07/28 07:10:27;;;;;;;9.32;4.85;;;20.40;96.70;;;;;;5030776;28;20057;-72
2021/07/28 07:12:53;;;;;;;7.90;4.45;;;20.40;96.60;;;;;;5030621;28;20668;-73
2021/07/28 07:15:18;;;;;;;12.90;4.13;;;20.50;96.60;;;;;;5029599;28;20033;-71
2021/07/28 07:17:44;;;;;;;11.32;4.65;;;20.50;96.90;;;;;;5034702;28;20048;-72
2021/07/28 07:20:10;;;;;;;7.55;4.18;;;20.50;96.70;;;;;;5034303;28;20084;-73
2021/07/28 07:22:36;;;;;;;9.23;4.18;;;20.60;96.60;;;;;;5033905;28;20037;-73
2021/07/28 07:25:02;;;;;;;6.72;4.38;;;20.60;96.50;;;;;;5034189;28;20078;-71
2021/07/28 07:27:28;;;;;;;7.68;4.40;;;20.70;96.50;;;;;;5034135;28;20112;-72
2021/07/28 07:29:55;;;;;;;9.40;4.70;;;20.70;96.50;;;;;;5034618;28;20171;-73
2021/07/28 07:32:22;;;;;;;6.43;4.40;;;20.70;96.50;;;;;;5034119;28;20561;-71
2021/07/28 07:34:51;;;;;;;10.95;4.43;;;20.70;96.40;;;;;;5033974;28;20108;-71
2021/07/28 07:37:17;;;;;;;9.10;4.65;;;20.70;96.60;;;;;;5034092;28;20029;-73
2021/07/28 07:39:43;;;;;;;7.07;5.13;;;20.70;96.10;;;;;;5034165;28;20033;-72
2021/07/28 07:42:08;;;;;;;7.32;4.75;;;20.80;96.20;;;;;;5034344;28;20041;-72
2021/07/28 07:44:34;;;;;;;5.75;4.70;;;20.80;95.90;;;;;;5034375;28;20037;-72
2021/07/28 07:46:59;;;;;;;6.93;4.70;;;20.80;96.10;;;;;;5032871;28;20731;-72
2021/07/28 07:49:25;;;;;;;7.72;4.57;;;20.90;96.00;;;;;;5033538;28;20104;-72
2021/07/28 07:51:50;;;;;;;9.48;4.75;;;21.00;96.00;;;;;;5033675;28;20040;-73
2021/07/28 07:54:16;;;;;;;9.77;4.57;;;21.00;96.00;;;;;;5033579;28;20064;-73
2021/07/28 07:56:42;;;;;;;6.65;4.53;;;21.10;96.00;;;;;;5033984;28;20021;-71
2021/07/28 07:59:08;;;;;;;13.00;4.68;;;21.10;96.10;;;;;;5033388;28;20050;-73
2021/07/28 08:01:33;;;;;;;7.68;4.38;;;21.10;95.90;;;;;;5033605;28;20530;-73
2021/07/28 08:03:59;;;;;;;10.68;4.88;;;21.00;95.60;;;;;;5033176;28;20099;-72
2021/07/28 08:06:24;;;;;;;8.20;3.75;;;21.00;95.50;;;;;;5033230;28;20026;-73
2021/07/28 08:08:51;;;;;;;11.55;4.32;;;21.00;95.60;;;;;;5034160;28;20450;-72
2021/07/28 08:11:17;;;;;;;7.10;4.15;;;21.00;95.60;;;;;;5033759;28;20109;-73
2021/07/28 08:13:43;;;;;;;9.30;4.82;;;20.90;95.50;;;;;;5033628;28;20414;-72
2021/07/28 08:16:14;;;;;;;8.88;4.50;;;20.90;95.60;;;;;;5033368;28;20026;-73
2021/07/28 08:18:39;;;;;;;9.35;4.28;;;20.90;95.50;;;;;;5033287;28;20029;-72
2021/07/28 08:21:06;;;;;;;10.18;4.43;;;20.90;95.70;;;;;;5033613;28;20137;-71
2021/07/28 08:23:33;;;;;;;10.67;4.13;;;20.90;95.70;;;;;;5032303;28;20046;-73
2021/07/28 08:25:58;;;;;;;6.82;4.65;;;20.90;95.60;;;;;;5033273;28;20036;-71
2021/07/28 08:28:24;;;;;;;9.07;4.68;;;21.00;95.60;;;;;;5032600;28;20112;-73
2021/07/28 08:30:49;;;;;;;9.73;4.70;;;20.90;95.40;;;;;;5033188;28;20065;-72
2021/07/28 08:33:18;;;;;;;9.85;4.55;;;21.00;95.50;;;;;;5032866;28;20091;-73
2021/07/28 08:35:43;;;;;;;8.50;4.97;;;21.00;95.40;;;;;;5033249;28;20026;-72
2021/07/28 08:38:09;;;;;;;9.52;4.20;;;21.00;95.50;;;;;;5032831;28;20053;-73
2021/07/28 08:40:36;;;;;;;8.05;4.50;;;21.20;95.50;;;;;;5032979;28;20068;-73
2021/07/28 08:43:03;;;;;;;12.30;4.95;;;21.20;95.30;;;;;;5033215;28;20030;-73
2021/07/28 08:45:29;;;;;;;6.20;4.75;;;21.40;95.30;;;;;;5032740;28;20091;-72
2021/07/28 08:47:55;;;;;;;8.52;4.80;;;21.40;95.20;;;;;;5033176;28;20037;-72
2021/07/28 08:50:20;;;;;;;10.30;4.95;;;22.00;95.10;;;;;;5032370;28;20026;-73
2021/07/28 08:52:47;;;;;;;11.20;4.80;;;23.10;94.30;;;;;;5032513;28;20057;-74
2021/07/28 08:55:12;;;;;;;8.55;4.20;;;24.10;93.20;;;;;;5032568;28;20037;-72
2021/07/28 08:57:38;;;;;;;10.95;4.40;;;24.90;92.30;;;;;;5032376;28;20053;-73
2021/07/28 09:00:08;;;;;;;9.30;4.53;;;25.40;90.90;;;;;;5033044;28;20485;-73
2021/07/28 09:02:34;;;;;;;11.90;4.32;;;26.20;89.90;;;;;;5032716;28;20037;-73
2021/07/28 09:05:00;;;;;;;7.57;4.28;;;26.70;87.20;;;;;;5032159;28;20026;-73
2021/07/28 09:07:27;;;;;;;7.20;4.40;;;27.00;87.10;;;;;;5031377;28;20079;-73
2021/07/28 09:09:55;;;;;;;10.97;4.87;;;27.10;84.50;;;;;;5032210;28;20503;-74
2021/07/28 09:12:28;;;;;;;;;;;27.30;86.40;;;;;;5032448;28;20026;-73
2021/07/28 09:14:57;;;;;;;10.35;4.63;;;28.40;84.30;;;;;;5032596;28;19905;-74
2021/07/28 09:17:26;;;;;;;9.32;4.95;;;29.00;81.40;;;;;;5032405;28;20030;-74
2021/07/28 09:19:53;;;;;;;7.63;3.72;;;28.80;78.50;;;;;;5030835;28;20029;-73
2021/07/28 09:22:19;;;;;;;7.20;3.93;;;29.30;77.90;;;;;;5030735;28;20045;-74
2021/07/28 09:25:09;;;;;;;7.80;4.55;;;30.10;76.10;;;;;;5031861;28;20034;-72
2021/07/28 09:27:54;;;;;;;5.63;3.75;;;30.40;73.10;;;;;;5032195;28;20045;-72
2021/07/28 09:30:25;;;;;;;5.43;4.03;;;30.40;72.50;;;;;;5031679;28;20494;-72
2021/07/28 09:33:10;;;;;;;9.40;4.93;;;29.50;71.40;;;;;;5032506;28;20021;-73
2021/07/28 09:35:47;;;;;;;9.25;4.22;;;29.10;71.90;;;;;;5032024;28;20030;-73
2021/07/28 09:38:47;;;;;;;7.95;3.83;;;28.40;73.30;;;;;;5031669;28;20029;-74
2021/07/28 09:41:18;;;;;;;9.20;4.85;;;28.20;74.50;;;;;;5029951;28;20049;-73
2021/07/28 09:44:02;;;;;;;5.95;3.58;;;27.80;75.70;;;;;;5031525;28;20045;-73
2021/07/28 09:46:33;;;;;;;5.88;4.00;;;27.30;75.30;;;;;;5031467;28;20534;-72
2021/07/28 09:49:02;;;;;;;8.02;3.85;;;27.30;76.40;;;;;;5031423;28;20040;-72
2021/07/28 09:51:36;;;;;;;6.80;3.83;;;27.40;76.40;;;;;;5031493;28;20056;-73
2021/07/28 09:54:07;;;;;;;10.60;4.03;;;27.30;76.30;;;;;;5031881;28;20025;-72
2021/07/28 09:56:45;;;;;;;6.55;3.63;;;27.20;77.10;;;;;;5031453;28;20030;-73
2021/07/28 09:59:12;;;;;;;7.85;3.92;;;27.10;76.80;;;;;;5031377;28;20029;-72
2021/07/28 10:01:41;;;;;;;7.35;3.47;;;27.00;77.10;;;;;;5031272;28;20099;-72
2021/07/28 10:04:10;;;;;;;7.22;3.85;;;26.90;76.90;;;;;;5030869;28;20099;-73
2021/07/28 10:06:40;;;;;;;7.43;3.55;;;26.80;78.20;;;;;;5030030;28;20524;-74
2021/07/28 10:09:35;;;;;;;5.90;3.50;;;26.90;77.30;;;;;;5030433;28;20041;-73
2021/07/28 10:12:01;;;;;;;4.78;2.97;;;26.80;77.00;;;;;;5028310;28;20124;-73
2021/07/28 10:14:27;;;;;;;9.30;3.25;;;26.60;78.40;;;;;;5031064;28;20472;-73
2021/07/28 10:16:53;;;;;;;4.30;3.03;;;26.80;77.70;;;;;;5031216;28;20455;-72
2021/07/28 10:19:19;;;;;;;5.88;3.45;;;26.80;77.70;;;;;;5030819;28;20055;-73
2021/07/28 10:21:46;;;;;;;6.78;3.85;;;26.90;78.00;;;;;;5029513;28;20394;-73
2021/07/28 10:24:12;;;;;;;7.05;3.78;;;26.60;78.20;;;;;;5030627;28;20031;-73
2021/07/28 10:26:42;;;;;;;6.78;3.47;;;26.60;78.10;;;;;;5031380;28;20119;-73
2021/07/28 10:29:09;;;;;;;5.35;3.63;;;26.60;78.20;;;;;;5031029;28;20021;-73
2021/07/28 10:31:55;;;;;;;5.13;3.17;;;26.40;78.70;;;;;;5030914;28;20049;-72
2021/07/28 10:34:24;;;;;;;6.18;3.20;;;26.30;78.20;;;;;;5030472;28;20037;-72
2021/07/28 10:36:52;;;;;;;8.32;3.60;;;26.40;78.30;;;;;;5030761;28;20080;-71
2021/07/28 10:39:37;;;;;;;5.55;3.60;;;26.30;77.30;;;;;;5030679;28;20402;-73
2021/07/28 10:42:29;;;;;;;7.63;4.38;;;26.00;76.90;;;;;;5031260;28;20043;-70
2021/07/28 10:45:07;;;;;;;9.60;4.72;;;25.90;78.00;;;;;;5010144;28;20068;-73
2021/07/28 10:47:46;;;;;;;7.45;4.25;;;25.70;78.40;;;;;;5031300;28;20123;-70
2021/07/28 10:52:57;;;;;;;6.70;4.35;;;25.40;79.10;;;;;;5035144;28;20120;-73
2021/07/28 10:55:25;;;;;;;5.80;4.00;;;25.40;79.50;;;;;;5034660;28;20120;-72
2021/07/28 10:58:11;;;;;;;7.55;3.88;;;25.20;79.70;;;;;;5034837;28;20091;-72
2021/07/28 11:00:39;;;;;;;5.72;3.83;;;25.00;80.60;;;;;;5030794;28;20041;-72
2021/07/28 11:03:12;;;;;;;6.05;3.58;;;24.90;80.90;;;;;;5034958;28;20055;-72
2021/07/28 11:05:40;;;;;;;5.40;3.70;;;24.90;81.80;;;;;;5034601;28;20030;-73
2021/07/28 11:08:05;;;;;;;5.15;3.60;;;25.00;82.30;;;;;;5034549;28;20026;-72
2021/07/28 11:10:52;;;;;;;6.38;3.53;;;25.00;81.90;;;;;;5034433;28;20044;-73
2021/07/28 11:13:26;;;;;;;8.20;4.00;;;24.90;81.70;;;;;;5033291;28;20033;-72
2021/07/28 11:15:58;;;;;;;6.78;3.70;;;25.00;81.70;;;;;;5034378;28;20053;-73
2021/07/28 11:18:37;;;;;;;8.32;3.92;;;25.10;81.80;;;;;;5034341;28;20455;-72
2021/07/28 11:21:07;;;;;;;5.60;4.05;;;25.10;82.00;;;;;;5034194;28;20057;-72
2021/07/28 11:23:32;;;;;;;4.60;3.42;;;25.00;82.00;;;;;;5034240;28;20052;-72
2021/07/28 11:26:00;;;;;;;5.20;3.65;;;24.80;82.30;;;;;;5034075;28;20029;-73
2021/07/28 11:28:27;;;;;;;11.23;3.95;;;24.80;82.60;;;;;;5034180;28;20041;-72
2021/07/28 11:31:02;;;;;;;5.20;3.05;;;24.60;82.80;;;;;;5034548;28;20034;-72
2021/07/28 11:33:29;;;;;;;5.90;3.83;;;24.60;83.20;;;;;;5034031;28;20041;-72
2021/07/28 11:35:56;;;;;;;4.57;3.50;;;24.60;83.60;;;;;;5034452;28;20064;-72
2021/07/28 11:38:23;;;;;;;6.00;3.67;;;24.50;83.50;;;;;;5034009;28;20081;-72
2021/07/28 11:40:54;;;;;;;5.68;3.47;;;24.60;83.20;;;;;;5032845;28;20044;-72
2021/07/28 11:43:39;;;;;;;9.13;3.40;;;24.70;82.90;;;;;;5033803;28;20076;-72
2021/07/28 11:46:14;;;;;;;5.30;3.53;;;24.90;82.80;;;;;;5032191;28;20061;-72
2021/07/28 11:48:59;;;;;;;2.95;2.67;;;25.00;82.80;;;;;;5033381;28;20061;-72
2021/07/28 11:51:35;;;;;;;5.30;3.35;;;25.10;82.20;;;;;;5033712;28;20078;-73
2021/07/28 11:54:16;;;;;;;5.45;3.17;;;25.00;82.80;;;;;;5034145;28;20367;-72
2021/07/28 11:56:53;;;;;;;7.28;3.05;;;24.90;82.50;;;;;;5033568;28;20033;-73
2021/07/28 11:59:26;;;;;;;5.13;3.50;;;24.80;82.50;;;;;;5033620;28;20037;-73
2021/07/28 12:01:56;;;;;;;5.35;2.65;;;24.90;83.10;;;;;;5032772;28;20105;-72
2021/07/28 12:04:34;;;;;;;3.92;2.47;;;25.00;81.70;;;;;;5031989;28;20044;-72
2021/07/28 12:07:16;;;;;;;12.27;3.35;;;25.10;80.90;;;;;;5033565;28;20033;-71
2021/07/28 12:09:55;;;;;;;3.55;2.55;;;25.20;81.40;;;;;;5033382;28;20033;-73
2021/07/28 12:12:23;;;;;;;5.65;4.53;;;25.30;81.60;;;;;;5033209;28;20439;-72
2021/07/28 12:14:50;;;;;;;2.97;2.45;;;25.40;81.70;;;;;;5032660;28;20075;-71
2021/07/28 12:17:15;;;;;;;4.13;2.42;;;25.40;81.10;;;;;;5033196;28;20033;-72
2021/07/28 12:20:01;;;;;;;3.33;2.67;;;25.50;81.40;;;;;;5032996;28;20022;-71
2021/07/28 12:22:33;;;;;;;6.65;3.03;;;25.40;81.70;;;;;;5032901;28;20340;-73
2021/07/28 12:25:24;;;;;;;3.53;2.75;;;25.40;82.00;;;;;;5032905;28;20060;-73
2021/07/28 12:27:55;;;;;;;4.10;2.47;;;25.20;81.60;;;;;;5032042;28;20037;-72
2021/07/28 12:30:32;;;;;;;3.85;2.70;;;25.10;81.70;;;;;;5032972;28;20406;-72
2021/07/28 12:33:11;;;;;;;5.00;3.45;;;25.10;82.10;;;;;;5033319;28;20050;-72
2021/07/28 12:35:38;;;;;;;5.68;2.97;;;24.90;82.00;;;;;;5032821;28;20057;-72
2021/07/28 12:38:08;;;;;;;4.45;2.45;;;24.80;82.40;;;;;;5033126;28;20347;-72
2021/07/28 12:40:35;;;;;;;6.53;2.38;;;24.30;83.50;;;;;;5032766;28;20060;-71
2021/07/28 12:43:00;;;;;;;8.35;2.70;;;23.90;88.00;;;;;;5032733;28;20409;-73
2021/07/28 12:45:26;;;;;;;4.43;2.75;;;23.40;90.70;;;;;;5032519;28;20099;-72
2021/07/28 12:47:52;;;;;;;7.97;2.70;;;23.20;90.50;;;;;;5033136;28;20022;-72
2021/07/28 12:50:17;;;;;;;8.50;3.50;;;23.00;90.40;;;;;;5031595;28;20096;-72
2021/07/28 12:52:44;;;;;;;15.15;8.57;;;22.90;91.20;;;;;;5032556;28;20026;-72
2021/07/28 12:55:10;;;;;;;5.07;2.30;;;22.80;91.10;;;;;;5031586;28;20033;-72